createdAt,value
2018-11-22T12:17:44.670Z,3.30
2018-11-22T12:20:13.648Z,3.30
2018-11-22T12:22:43.412Z,3.30
2018-11-22T12:25:18.489Z,3.30
2018-11-22T12:27:48.664Z,3.30
2018-11-22T12:30:26.054Z,3.20
2018-11-22T12:32:59.684Z,3.20
2018-11-22T12:35:33.383Z,3.20
2018-11-22T12:38:35.559Z,3.20
2018-11-22T12:41:03.862Z,3.20
2018-11-22T12:43:32.125Z,3.20
2018-11-22T12:46:00.382Z,3.20
2018-11-22T12:48:28.635Z,3.20
2018-11-22T12:50:56.909Z,3.20
2018-11-22T12:53:25.241Z,3.20
2018-11-22T12:55:53.551Z,3.20
2018-11-22T12:58:21.850Z,3.20
2018-11-22T13:00:50.105Z,3.20
2018-11-22T13:03:18.397Z,3.20
2018-11-22T13:05:46.653Z,3.20
2018-11-22T13:08:14.994Z,3.20
2018-11-22T13:10:43.298Z,3.20
2018-11-22T13:13:11.609Z,3.20
2018-11-22T13:15:39.958Z,3.20
2018-11-22T13:18:08.236Z,3.20
2018-11-22T13:20:36.538Z,3.20
2018-11-22T13:23:05.191Z,3.10
2018-11-22T13:25:33.432Z,3.10
2018-11-22T13:28:01.714Z,3.10
2018-11-22T13:30:30.018Z,3.10
2018-11-22T13:32:58.921Z,3.10
2018-11-22T13:35:27.205Z,3.10
2018-11-22T13:37:56.091Z,3.10
2018-11-22T13:40:24.418Z,3.10
2018-11-22T13:42:53.374Z,3.10
2018-11-22T13:45:23.377Z,3.10
2018-11-22T13:47:52.745Z,3.10
2018-11-22T13:50:27.394Z,3.10
2018-11-22T13:52:57.530Z,3.10
2018-11-22T13:55:25.793Z,3.10
2018-11-22T13:57:54.158Z,3.10
2018-11-22T14:00:24.737Z,3.10
2018-11-22T14:02:54.536Z,3.10
2018-11-22T14:05:22.801Z,3.10
2018-11-22T14:07:51.089Z,3.10
2018-11-22T14:10:20.050Z,3.10
2018-11-22T14:12:48.589Z,3.10
2018-11-22T14:15:18.869Z,3.10
2018-11-22T14:17:47.857Z,3.10
2018-11-22T14:20:25.106Z,3.10
2018-11-22T14:22:53.582Z,3.10
2018-11-22T14:25:21.904Z,3.10
2018-11-22T14:27:50.816Z,3.10
2018-11-22T14:30:20.537Z,3.20
2018-11-22T14:32:49.735Z,3.10
2018-11-22T14:35:18.994Z,3.10
2018-11-22T14:37:47.359Z,3.10
2018-11-22T14:40:20.138Z,3.20
2018-11-22T14:42:50.243Z,3.10
2018-11-22T14:45:18.584Z,3.20
2018-11-22T14:47:47.956Z,3.10
2018-11-22T14:50:19.864Z,3.20
2018-11-22T14:52:51.174Z,3.20
2018-11-22T14:55:19.475Z,3.10
2018-11-22T14:57:47.742Z,3.10
2018-11-22T15:00:16.605Z,3.10
2018-11-22T15:02:46.146Z,3.20
2018-11-22T15:05:14.904Z,3.20
2018-11-22T15:07:43.690Z,3.20
2018-11-22T15:10:13.313Z,3.20
2018-11-22T15:12:42.727Z,3.20
2018-11-22T15:15:14.076Z,3.20
2018-11-22T15:17:42.474Z,3.20
2018-11-22T15:20:12.481Z,3.20
2018-11-22T15:22:42.221Z,3.20
2018-11-22T15:25:11.930Z,3.20
2018-11-22T15:27:40.474Z,3.20
2018-11-22T15:30:10.759Z,3.10
2018-11-22T15:32:39.176Z,3.10
2018-11-22T15:35:09.362Z,3.10
2018-11-22T15:37:38.492Z,3.20
2018-11-22T15:40:08.118Z,3.20
2018-11-22T15:42:36.734Z,3.20
2018-11-22T15:45:05.650Z,3.10
2018-11-22T15:47:34.018Z,3.20
2018-11-22T15:50:02.482Z,3.10
2018-11-22T15:52:30.854Z,3.10
2018-11-22T15:54:59.222Z,3.10
2018-11-22T15:57:27.631Z,3.10
2018-11-22T15:59:56.058Z,3.10
2018-11-22T16:02:24.349Z,3.10
2018-11-22T16:04:52.633Z,3.10
2018-11-22T16:07:20.916Z,3.10
2018-11-22T16:09:49.213Z,3.10
2018-11-22T16:12:17.538Z,3.10
2018-11-22T16:14:45.862Z,3.10
2018-11-22T16:17:14.367Z,3.10
2018-11-22T16:19:42.993Z,3.10
2018-11-22T16:22:11.226Z,3.10
2018-11-22T16:24:39.490Z,3.10
2018-11-22T16:27:07.780Z,3.10
2018-11-22T16:29:36.233Z,3.10
2018-11-22T16:32:04.600Z,3.10
2018-11-22T16:34:32.886Z,3.10
2018-11-22T16:37:01.230Z,3.10
2018-11-22T16:39:29.507Z,3.10
2018-11-22T16:41:57.862Z,3.10
2018-11-22T16:44:26.728Z,3.20
2018-11-22T16:46:55.081Z,3.10
2018-11-22T16:49:24.085Z,3.10
2018-11-22T16:51:52.722Z,3.10
2018-11-22T16:54:21.042Z,3.10
2018-11-22T16:56:49.745Z,3.20
2018-11-22T16:59:18.414Z,3.20
2018-11-22T17:01:46.717Z,3.20
2018-11-22T17:04:15.937Z,3.20
2018-11-22T17:06:44.330Z,3.20
2018-11-22T17:09:13.082Z,3.20
2018-11-22T17:11:41.687Z,3.20
2018-11-22T17:14:10.360Z,3.20
2018-11-22T17:16:39.829Z,3.20
2018-11-22T17:19:08.434Z,3.20
2018-11-22T17:21:36.806Z,3.20
2018-11-22T17:24:06.217Z,3.20
2018-11-22T17:26:35.209Z,3.20
2018-11-22T17:29:03.734Z,3.20
2018-11-22T17:31:32.165Z,3.20
2018-11-22T17:34:00.897Z,3.20
2018-11-22T17:36:29.461Z,3.20
2018-11-22T17:38:58.098Z,3.20
2018-11-22T17:41:26.679Z,3.20
2018-11-22T17:43:55.310Z,3.20
2018-11-22T17:46:38.548Z,3.20
2018-11-22T17:49:07.303Z,3.20
2018-11-22T17:51:36.173Z,3.20
2018-11-22T17:54:05.145Z,3.20
2018-11-22T17:56:34.386Z,3.20
2018-11-22T17:59:02.699Z,3.20
2018-11-22T18:01:31.370Z,3.20
2018-11-22T18:04:00.334Z,3.20
2018-11-22T18:06:29.062Z,3.20
2018-11-22T18:08:57.522Z,3.20
2018-11-22T18:11:26.289Z,3.20
2018-11-22T18:13:56.813Z,3.20
2018-11-22T18:16:25.537Z,3.20
2018-11-22T18:18:54.450Z,3.20
2018-11-22T18:21:25.414Z,3.20
2018-11-22T18:23:56.876Z,3.20
2018-11-22T18:26:27.594Z,3.20
2018-11-22T18:28:58.669Z,3.20
2018-11-22T18:31:30.748Z,3.20
2018-11-22T18:34:02.248Z,3.10
2018-11-22T18:36:33.033Z,3.10
2018-11-22T18:39:01.493Z,3.10
2018-11-22T18:41:29.873Z,3.10
2018-11-22T18:43:58.266Z,3.00
2018-11-22T18:46:26.717Z,3.00
2018-11-22T18:48:55.112Z,3.10
2018-11-22T18:51:23.499Z,3.10
2018-11-22T18:53:52.158Z,3.10
2018-11-22T18:56:20.473Z,3.10
2018-11-22T18:58:49.001Z,3.10
2018-11-22T19:01:17.585Z,3.10
2018-11-22T19:03:45.938Z,3.10
2018-11-22T19:06:14.297Z,3.10
2018-11-22T19:08:42.617Z,3.10
2018-11-22T19:11:10.951Z,3.10
2018-11-22T19:13:39.358Z,3.10
2018-11-22T19:16:07.757Z,3.10
2018-11-22T19:18:36.236Z,3.10
2018-11-22T19:21:04.769Z,3.10
2018-11-22T19:23:33.296Z,3.10
2018-11-22T19:26:01.924Z,3.10
2018-11-22T19:28:30.347Z,3.10
2018-11-22T19:30:58.989Z,3.10
2018-11-22T19:33:27.440Z,3.10
2018-11-22T19:35:55.781Z,3.10
2018-11-22T19:38:24.126Z,3.10
2018-11-22T19:40:52.671Z,3.10
2018-11-22T19:43:21.021Z,3.10
2018-11-22T19:45:49.806Z,3.10
2018-11-22T19:48:18.125Z,3.00
2018-11-22T19:50:51.057Z,3.00
2018-11-22T19:53:19.379Z,3.00
2018-11-22T19:55:47.911Z,3.00
2018-11-22T19:58:17.205Z,3.00
2018-11-22T20:00:45.495Z,3.00
2018-11-22T20:03:13.906Z,3.00
2018-11-22T20:05:44.005Z,3.00
2018-11-22T20:08:14.144Z,3.00
2018-11-22T20:10:43.441Z,3.00
2018-11-22T20:13:11.846Z,3.00
2018-11-22T20:15:40.278Z,3.00
2018-11-22T20:18:11.758Z,3.00
2018-11-22T20:20:41.165Z,3.00
2018-11-22T20:23:09.498Z,3.00
2018-11-22T20:25:37.826Z,3.00
2018-11-22T20:28:06.098Z,3.00
2018-11-22T20:30:36.013Z,3.00
2018-11-22T20:33:04.390Z,3.00
2018-11-22T20:35:32.905Z,3.00
2018-11-22T20:38:01.173Z,3.00
2018-11-22T20:40:29.782Z,3.10
2018-11-22T20:42:58.586Z,3.00
2018-11-22T20:45:27.366Z,3.10
2018-11-22T20:47:57.186Z,3.10
2018-11-22T20:50:26.493Z,3.10
2018-11-22T20:52:54.812Z,3.10
2018-11-22T20:55:25.214Z,3.10
2018-11-22T20:57:58.813Z,3.10
2018-11-22T21:00:28.686Z,3.10
2018-11-22T21:03:00.733Z,3.10
2018-11-22T21:05:29.637Z,3.10
2018-11-22T21:07:57.985Z,3.10
2018-11-22T21:10:27.428Z,3.00
2018-11-22T21:12:55.722Z,3.00
2018-11-22T21:15:25.377Z,3.00
2018-11-22T21:17:55.382Z,3.00
2018-11-22T21:20:25.314Z,2.90
2018-11-22T21:22:53.639Z,2.90
2018-11-22T21:25:22.298Z,2.90
2018-11-22T21:27:50.761Z,2.90
2018-11-22T21:30:22.539Z,2.80
2018-11-22T21:32:51.272Z,2.80
2018-11-22T21:35:19.865Z,2.70
2018-11-22T21:37:48.839Z,2.70
2018-11-22T21:40:17.959Z,2.60
2018-11-22T21:42:47.497Z,2.60
2018-11-22T21:45:18.114Z,2.50
2018-11-22T21:47:46.397Z,2.50
2018-11-22T21:50:16.813Z,2.40
2018-11-22T21:52:45.173Z,2.40
2018-11-22T21:55:20.893Z,2.30
2018-11-22T21:57:54.762Z,2.30
2018-11-22T22:00:26.525Z,2.30
2018-11-22T22:03:06.829Z,2.20
2018-11-22T22:05:35.184Z,2.20
2018-11-22T22:08:04.494Z,2.10
2018-11-22T22:10:32.821Z,2.10
2018-11-22T22:13:01.062Z,2.10
2018-11-22T22:15:30.978Z,2.10
2018-11-22T22:17:59.523Z,2.00
2018-11-22T22:20:30.761Z,2.00
2018-11-22T22:22:59.825Z,2.00
2018-11-22T22:25:27.906Z,1.90
2018-11-22T22:27:56.833Z,1.90
2018-11-22T22:30:27.225Z,2.00
2018-11-22T22:32:56.886Z,1.90
2018-11-22T22:35:25.190Z,1.90
2018-11-22T22:37:53.476Z,1.90
2018-11-22T22:40:23.965Z,1.90
2018-11-22T22:42:53.407Z,1.90
2018-11-22T22:45:22.590Z,1.90
2018-11-22T22:47:51.297Z,1.90
2018-11-22T22:50:20.829Z,1.90
2018-11-22T22:52:50.409Z,1.80
2018-11-22T22:55:18.690Z,1.80
2018-11-22T22:57:47.007Z,1.80
2018-11-22T23:00:25.718Z,1.80
2018-11-22T23:02:57.164Z,1.80
2018-11-22T23:05:26.103Z,1.80
2018-11-22T23:07:54.641Z,1.80
2018-11-22T23:10:23.317Z,1.80
2018-11-22T23:12:51.877Z,1.70
2018-11-22T23:15:20.845Z,1.70
2018-11-22T23:17:49.174Z,1.80
2018-11-22T23:20:20.273Z,1.70
2018-11-22T23:22:48.925Z,1.70
2018-11-22T23:25:18.207Z,1.70
2018-11-22T23:27:46.481Z,1.70
2018-11-22T23:30:20.578Z,1.70
2018-11-22T23:32:50.015Z,1.60
2018-11-22T23:35:18.566Z,1.60
2018-11-22T23:37:47.865Z,1.50
2018-11-22T23:40:17.454Z,1.50
2018-11-22T23:42:45.881Z,1.40
2018-11-22T23:45:15.421Z,1.40
2018-11-22T23:47:44.783Z,1.30
2018-11-22T23:50:14.853Z,1.30
2018-11-22T23:52:44.292Z,1.30
2018-11-22T23:55:14.778Z,1.30
2018-11-22T23:57:43.126Z,1.30
